^^
Station Historical Data
Daily Summary for January 22, 2017 Units:  English    Metric   Both
« Previous Day
Next Day »
Daily Weekly Monthly Yearly Custom
  High: Low: Average:
Temperature: 47.7 °F 40.6 °F 44.1 °F
Dew Point: 46.9 °F 39.5 °F 43.1 °F
Humidity: 97 % 92 % 96 %
Wind Speed: 7.0 mph 0.0 mph 0.8 mph
Wind Gust: 16.0 mph - -
Wind:- - SE
Pressure: 29.80 in 29.67 in -
Precipitation: 0.00 in    
Historical Graphs
 
 
Tabular Data for January 22, 2017
Time Temperature Dew Point Pressure Wind Wind Speed Wind Gust Humidity Rainfall Rate (Hourly) solar Conditions
00:04 42.9 °F 41.8 °F 29.79 in Calm     96 % 0.00 in 0.0 W/m2 RA
00:09 42.9 °F 41.8 °F 29.79 in Calm     96 % 0.00 in 0.0 W/m2 RA
00:14 42.8 °F 41.7 °F 29.79 in Calm     96 % 0.00 in 0.0 W/m2 OVC
00:19 42.8 °F 41.7 °F 29.80 in Calm     96 % 0.00 in 0.0 W/m2 OVC
00:24 42.8 °F 41.7 °F 29.80 in Calm     96 % 0.00 in 0.0 W/m2 OVC
00:29 42.8 °F 41.7 °F 29.79 in Calm     96 % 0.00 in 0.0 W/m2 OVC
00:34 42.8 °F 41.7 °F 29.80 in WNW 2.0 mph 3.0 mph 96 % 0.00 in 0.0 W/m2 OVC
00:39 42.8 °F 41.7 °F 29.80 in Calm   4.0 mph 96 % 0.00 in 0.0 W/m2 OVC
00:44 42.7 °F 41.6 °F 29.80 in Calm   1.0 mph 96 % 0.00 in 0.0 W/m2 OVC
00:49 42.7 °F 41.6 °F 29.80 in Calm   2.0 mph 96 % 0.00 in 0.0 W/m2 OVC
00:54 42.7 °F 41.6 °F 29.79 in Calm     96 % 0.00 in 0.0 W/m2 OVC
00:59 42.7 °F 41.6 °F 29.78 in Calm     96 % 0.00 in 0.0 W/m2 OVC
01:04 42.6 °F 41.5 °F 29.78 in Calm     96 % 0.00 in 0.0 W/m2 OVC
01:09 42.6 °F 41.5 °F 29.77 in Calm     96 % 0.00 in 0.0 W/m2 OVC
01:14 42.6 °F 41.5 °F 29.78 in Calm     96 % 0.00 in 0.0 W/m2 OVC
01:19 42.5 °F 41.4 °F 29.77 in Calm     96 % 0.00 in 0.0 W/m2 OVC
01:24 42.5 °F 41.4 °F 29.77 in Calm     96 % 0.00 in 0.0 W/m2 OVC
01:29 42.5 °F 41.4 °F 29.77 in Calm     96 % 0.00 in 0.0 W/m2 OVC
01:34 42.4 °F 41.3 °F 29.77 in Calm     96 % 0.00 in 0.0 W/m2 OVC
01:39 42.5 °F 41.4 °F 29.76 in SW 1.0 mph 3.0 mph 96 % 0.00 in 0.0 W/m2 OVC
01:44 42.5 °F 41.4 °F 29.76 in Calm   3.0 mph 96 % 0.00 in 0.0 W/m2 OVC
01:49 42.5 °F 41.4 °F 29.77 in Calm     96 % 0.00 in 0.0 W/m2 OVC
01:54 42.5 °F 41.4 °F 29.77 in Calm     96 % 0.00 in 0.0 W/m2 OVC
01:59 42.4 °F 41.3 °F 29.76 in Calm     96 % 0.00 in 0.0 W/m2 OVC
02:04 42.4 °F 41.3 °F 29.76 in Calm     96 % 0.00 in 0.0 W/m2 OVC
02:09 42.4 °F 41.3 °F 29.76 in Calm     96 % 0.00 in 0.0 W/m2 OVC
02:14 42.4 °F 41.3 °F 29.76 in Calm     96 % 0.00 in 0.0 W/m2 OVC
02:19 42.3 °F 41.2 °F 29.76 in Calm     96 % 0.00 in 0.0 W/m2 OVC
02:24 42.2 °F 41.1 °F 29.75 in WNW 1.0 mph 2.0 mph 96 % 0.00 in 0.0 W/m2 OVC
02:29 42.2 °F 41.1 °F 29.75 in WNW 1.0 mph 3.0 mph 96 % 0.00 in 0.0 W/m2 OVC
02:34 42.1 °F 41.0 °F 29.75 in WNW 1.0 mph 2.0 mph 96 % 0.00 in 0.0 W/m2 OVC
02:39 42.1 °F 41.0 °F 29.75 in WNW 2.0 mph 3.0 mph 96 % 0.00 in 0.0 W/m2 OVC
02:44 42.1 °F 41.0 °F 29.74 in Calm   1.0 mph 96 % 0.00 in 0.0 W/m2 OVC
02:49 42.0 °F 40.9 °F 29.74 in Calm     96 % 0.00 in 0.0 W/m2 OVC
02:54 42.0 °F 40.9 °F 29.75 in Calm     96 % 0.00 in 0.0 W/m2 OVC
02:59 42.0 °F 40.9 °F 29.75 in WNW 2.0 mph 2.0 mph 96 % 0.00 in 0.0 W/m2 OVC
03:04 42.0 °F 40.9 °F 29.75 in Calm   3.0 mph 96 % 0.00 in 0.0 W/m2 OVC
03:09 42.0 °F 40.9 °F 29.75 in Calm   3.0 mph 96 % 0.00 in 0.0 W/m2 OVC
03:14 42.0 °F 40.9 °F 29.75 in Calm     96 % 0.00 in 0.0 W/m2 OVC
03:19 42.0 °F 40.9 °F 29.75 in Calm     96 % 0.00 in 0.0 W/m2 OVC
03:24 42.1 °F 41.0 °F 29.75 in Calm   1.0 mph 96 % 0.00 in 0.0 W/m2 OVC
03:29 42.1 °F 41.0 °F 29.75 in Calm   1.0 mph 96 % 0.00 in 0.0 W/m2 OVC
03:34 42.1 °F 41.0 °F 29.75 in Calm   2.0 mph 96 % 0.00 in 0.0 W/m2 OVC
03:39 42.2 °F 41.1 °F 29.75 in Calm     96 % 0.00 in 0.0 W/m2 OVC
03:44 42.1 °F 41.0 °F 29.74 in Calm     96 % 0.00 in 0.0 W/m2 OVC
03:49 42.1 °F 41.0 °F 29.74 in Calm     96 % 0.00 in 0.0 W/m2 OVC
03:54 42.1 °F 41.0 °F 29.74 in Calm     96 % 0.00 in 0.0 W/m2 OVC
03:59 42.1 °F 41.0 °F 29.74 in Calm     96 % 0.00 in 0.0 W/m2 OVC
04:04 42.1 °F 41.0 °F 29.74 in Calm     96 % 0.00 in 0.0 W/m2 OVC
04:09 42.0 °F 40.9 °F 29.73 in Calm     96 % 0.00 in 0.0 W/m2 OVC
04:14 42.0 °F 40.9 °F 29.73 in Calm     96 % 0.00 in 0.0 W/m2 OVC
04:19 41.9 °F 40.8 °F 29.73 in Calm     96 % 0.00 in 0.0 W/m2 OVC
04:24 41.9 °F 40.8 °F 29.74 in Calm     96 % 0.00 in 0.0 W/m2 OVC
04:29 41.9 °F 40.8 °F 29.74 in Calm   1.0 mph 96 % 0.00 in 0.0 W/m2 OVC
04:34 41.9 °F 40.8 °F 29.74 in Calm   2.0 mph 96 % 0.00 in 0.0 W/m2 OVC
04:39 41.9 °F 40.8 °F 29.74 in Calm   1.0 mph 96 % 0.00 in 0.0 W/m2 OVC
04:44 41.9 °F 40.8 °F 29.74 in Calm     96 % 0.00 in 0.0 W/m2 OVC
04:49 41.8 °F 40.7 °F 29.74 in Calm   1.0 mph 96 % 0.00 in 0.0 W/m2 OVC
04:54 41.8 °F 40.7 °F 29.74 in Calm     96 % 0.00 in 0.0 W/m2 OVC
04:59 41.8 °F 40.7 °F 29.74 in Calm     96 % 0.00 in 0.0 W/m2 OVC
05:04 41.7 °F 40.6 °F 29.75 in WNW 1.0 mph 3.0 mph 96 % 0.00 in 0.0 W/m2 OVC
05:09 41.7 °F 40.6 °F 29.74 in WNW 2.0 mph 5.0 mph 96 % 0.00 in 0.0 W/m2 OVC
05:14 41.7 °F 40.6 °F 29.74 in WNW 3.0 mph 4.0 mph 96 % 0.00 in 0.0 W/m2 OVC
05:19 41.6 °F 40.5 °F 29.74 in NW 2.0 mph 4.0 mph 96 % 0.00 in 0.0 W/m2 OVC
05:24 41.5 °F 40.4 °F 29.74 in NW 1.0 mph 3.0 mph 96 % 0.00 in 0.0 W/m2 OVC
05:29 41.3 °F 40.2 °F 29.74 in Calm   1.0 mph 96 % 0.00 in 0.0 W/m2 OVC
05:34 41.2 °F 40.1 °F 29.74 in Calm   3.0 mph 96 % 0.00 in 0.0 W/m2 OVC
05:39 41.1 °F 40.0 °F 29.74 in Calm     96 % 0.00 in 0.0 W/m2 OVC
05:44 41.0 °F 39.9 °F 29.74 in Calm     96 % 0.00 in 0.0 W/m2 OVC
05:49 41.0 °F 39.9 °F 29.73 in Calm     96 % 0.00 in 0.0 W/m2 OVC
05:54 40.9 °F 39.8 °F 29.73 in Calm     96 % 0.00 in 0.0 W/m2 OVC
05:59 40.8 °F 39.7 °F 29.73 in Calm   1.0 mph 96 % 0.00 in 0.0 W/m2 OVC
06:04 40.9 °F 39.8 °F 29.72 in Calm     96 % 0.00 in 0.0 W/m2 OVC
06:09 40.9 °F 39.8 °F 29.72 in Calm     96 % 0.00 in 0.0 W/m2 OVC
06:14 40.9 °F 39.8 °F 29.73 in Calm     96 % 0.00 in 0.0 W/m2 OVC
06:19 40.9 °F 39.8 °F 29.72 in Calm   2.0 mph 96 % 0.00 in 0.0 W/m2 OVC
06:24 40.9 °F 39.8 °F 29.73 in Calm     96 % 0.00 in 0.0 W/m2 OVC
06:29 40.9 °F 39.8 °F 29.74 in Calm     96 % 0.00 in 0.0 W/m2 OVC
06:34 41.0 °F 39.9 °F 29.73 in Calm     96 % 0.00 in 0.0 W/m2 OVC
06:39 41.0 °F 39.9 °F 29.73 in Calm     96 % 0.00 in 0.0 W/m2 OVC
06:44 41.0 °F 39.9 °F 29.74 in Calm     96 % 0.00 in 0.0 W/m2 OVC
06:49 41.0 °F 39.9 °F 29.74 in Calm     96 % 0.00 in 0.0 W/m2 OVC
06:54 41.0 °F 39.9 °F 29.74 in Calm     96 % 0.00 in 0.0 W/m2 OVC
06:59 41.1 °F 40.0 °F 29.74 in Calm     96 % 0.00 in 0.0 W/m2 OVC
07:04 41.1 °F 40.0 °F 29.73 in Calm     96 % 0.00 in 0.0 W/m2 OVC
07:09 41.1 °F 40.0 °F 29.73 in Calm     96 % 0.00 in 0.0 W/m2 OVC
07:14 41.0 °F 39.9 °F 29.72 in Calm     96 % 0.00 in 0.0 W/m2 OVC
07:19 41.1 °F 40.0 °F 29.72 in Calm   1.0 mph 96 % 0.00 in 0.0 W/m2 OVC
07:24 41.1 °F 40.0 °F 29.71 in Calm     96 % 0.00 in 0.0 W/m2 OVC
07:29 41.0 °F 39.9 °F 29.71 in Calm     96 % 0.00 in 0.0 W/m2 OVC
07:34 41.0 °F 39.9 °F 29.72 in Calm     96 % 0.00 in 0.0 W/m2 OVC
07:39 41.0 °F 39.9 °F 29.73 in Calm     96 % 0.00 in 0.0 W/m2 OVC
07:44 40.9 °F 39.8 °F 29.72 in Calm     96 % 0.00 in 9.0 W/m2 FEW
07:49 40.9 °F 39.8 °F 29.72 in NW 1.0 mph 3.0 mph 96 % 0.00 in 9.0 W/m2 BKN
07:54 40.9 °F 39.8 °F 29.72 in Calm   2.0 mph 96 % 0.00 in 12.0 W/m2 BKN
07:59 40.9 °F 39.8 °F 29.73 in NW 2.0 mph 3.0 mph 96 % 0.00 in 18.0 W/m2 BKN
08:04 40.9 °F 39.8 °F 29.73 in Calm   4.0 mph 96 % 0.00 in 17.0 W/m2 OVC
08:09 40.8 °F 39.7 °F 29.72 in NNW 3.0 mph 4.0 mph 96 % 0.00 in 19.0 W/m2 OVC
08:14 40.8 °F 39.7 °F 29.72 in North 3.0 mph 4.0 mph 96 % 0.00 in 18.0 W/m2 OVC
08:19 40.8 °F 39.7 °F 29.74 in North 1.0 mph 3.0 mph 96 % 0.00 in 25.0 W/m2 OVC
08:24 40.7 °F 39.6 °F 29.74 in Calm     96 % 0.00 in 21.0 W/m2 OVC
08:29 40.7 °F 39.6 °F 29.73 in Calm   3.0 mph 96 % 0.00 in 26.0 W/m2 OVC
08:34 40.7 °F 39.6 °F 29.74 in Calm   2.0 mph 96 % 0.00 in 23.0 W/m2 OVC
08:39 40.6 °F 39.5 °F 29.74 in Calm   2.0 mph 96 % 0.00 in 15.0 W/m2 OVC
08:44 40.6 °F 39.5 °F 29.74 in North 1.0 mph 2.0 mph 96 % 0.00 in 32.0 W/m2 OVC
08:49 40.6 °F 39.5 °F 29.75 in Calm   2.0 mph 96 % 0.00 in 25.0 W/m2 OVC
08:54 40.7 °F 39.6 °F 29.75 in Calm     96 % 0.00 in 19.0 W/m2 OVC
08:59 40.7 °F 39.6 °F 29.74 in Calm   1.0 mph 96 % 0.00 in 25.0 W/m2 OVC
09:04 40.7 °F 39.6 °F 29.74 in North 1.0 mph 2.0 mph 96 % 0.00 in 49.0 W/m2 OVC
09:09 40.8 °F 39.7 °F 29.74 in Calm   3.0 mph 96 % 0.00 in 42.0 W/m2 OVC
09:14 40.9 °F 39.8 °F 29.75 in Calm   2.0 mph 96 % 0.00 in 37.0 W/m2 OVC
09:19 41.0 °F 39.9 °F 29.76 in Calm     96 % 0.00 in 46.0 W/m2 OVC
09:24 40.9 °F 39.8 °F 29.76 in Calm     96 % 0.00 in 53.0 W/m2 OVC
09:29 41.0 °F 39.9 °F 29.76 in Calm     96 % 0.00 in 53.0 W/m2 OVC
09:34 41.0 °F 39.9 °F 29.76 in Calm   1.0 mph 96 % 0.00 in 39.0 W/m2 OVC
09:39 41.1 °F 40.0 °F 29.76 in Calm     96 % 0.00 in 83.0 W/m2 OVC
09:44 41.1 °F 40.0 °F 29.77 in Calm   2.0 mph 96 % 0.00 in 86.0 W/m2 OVC
09:49 41.1 °F 40.0 °F 29.77 in Calm   2.0 mph 96 % 0.00 in 79.0 W/m2 OVC
09:54 41.1 °F 40.0 °F 29.77 in Calm   2.0 mph 96 % 0.00 in 88.0 W/m2 OVC
09:59 41.2 °F 40.1 °F 29.77 in Calm   1.0 mph 96 % 0.00 in 76.0 W/m2 OVC
10:04 41.2 °F 40.1 °F 29.77 in Calm     96 % 0.00 in 77.0 W/m2 OVC
10:09 41.2 °F 40.1 °F 29.77 in Calm     96 % 0.00 in 81.0 W/m2 OVC
10:14 41.2 °F 40.1 °F 29.77 in Calm   1.0 mph 96 % 0.00 in 84.0 W/m2 OVC
10:19 41.2 °F 40.1 °F 29.76 in Calm   2.0 mph 96 % 0.00 in 98.0 W/m2 OVC
10:24 41.3 °F 40.2 °F 29.76 in North 1.0 mph 3.0 mph 96 % 0.00 in 101.0 W/m2 OVC
10:29 41.6 °F 40.8 °F 29.76 in Calm   3.0 mph 97 % 0.00 in 109.0 W/m2 OVC
10:34 41.9 °F 41.1 °F 29.76 in Calm   3.0 mph 97 % 0.00 in 107.0 W/m2 OVC
10:39 41.9 °F 40.8 °F 29.76 in Calm   3.0 mph 96 % 0.00 in 105.0 W/m2 OVC
10:44 41.9 °F 40.8 °F 29.76 in Calm   2.0 mph 96 % 0.00 in 121.0 W/m2 OVC
10:49 42.0 °F 40.9 °F 29.76 in North 2.0 mph 3.0 mph 96 % 0.00 in 114.0 W/m2 OVC
10:54 41.7 °F 40.6 °F 29.76 in Calm   3.0 mph 96 % 0.00 in 114.0 W/m2 OVC
10:59 42.1 °F 41.0 °F 29.76 in Calm     96 % 0.00 in 109.0 W/m2 OVC
11:04 42.1 °F 41.0 °F 29.75 in Calm   3.0 mph 96 % 0.00 in 121.0 W/m2 OVC
11:09 42.2 °F 41.1 °F 29.75 in Calm     96 % 0.00 in 135.0 W/m2 OVC
11:14 42.2 °F 41.1 °F 29.75 in Calm     96 % 0.00 in 125.0 W/m2 OVC
11:19 42.4 °F 41.6 °F 29.74 in Calm     97 % 0.00 in 104.0 W/m2 OVC
11:24 42.6 °F 41.8 °F 29.74 in Calm     97 % 0.00 in 111.0 W/m2 OVC
11:29 42.8 °F 42.0 °F 29.75 in Calm     97 % 0.00 in 141.0 W/m2 OVC
11:34 42.8 °F 41.7 °F 29.74 in Calm     96 % 0.00 in 149.0 W/m2 OVC
11:39 43.1 °F 42.3 °F 29.74 in Calm     97 % 0.00 in 155.0 W/m2 OVC
11:44 43.1 °F 42.3 °F 29.74 in Calm     97 % 0.00 in 125.0 W/m2 OVC
11:49 43.2 °F 42.4 °F 29.73 in Calm   3.0 mph 97 % 0.00 in 128.0 W/m2 OVC
11:54 43.3 °F 42.5 °F 29.73 in Calm     97 % 0.00 in 141.0 W/m2 OVC
11:59 43.4 °F 42.6 °F 29.73 in Calm     97 % 0.00 in 169.0 W/m2 BKN
12:04 43.6 °F 42.8 °F 29.72 in Calm   1.0 mph 97 % 0.00 in 178.0 W/m2 BKN
12:09 44.1 °F 43.3 °F 29.72 in North 2.0 mph 3.0 mph 97 % 0.00 in 172.0 W/m2 BKN
12:14 44.3 °F 43.5 °F 29.72 in North 1.0 mph 3.0 mph 97 % 0.00 in 176.0 W/m2 BKN
12:19 44.0 °F 43.2 °F 29.72 in North 1.0 mph 4.0 mph 97 % 0.00 in 144.0 W/m2 OVC
12:24 44.1 °F 43.3 °F 29.71 in Calm   1.0 mph 97 % 0.00 in 116.0 W/m2 OVC
12:29 44.1 °F 43.3 °F 29.71 in Calm   2.0 mph 97 % 0.00 in 109.0 W/m2 OVC
12:34 44.2 °F 43.4 °F 29.71 in Calm   3.0 mph 97 % 0.00 in 114.0 W/m2 OVC
12:39 44.5 °F 43.7 °F 29.71 in Calm     97 % 0.00 in 102.0 W/m2 OVC
12:44 44.4 °F 43.6 °F 29.71 in Calm   2.0 mph 97 % 0.00 in 111.0 W/m2 OVC
12:49 44.4 °F 43.6 °F 29.71 in Calm   2.0 mph 97 % 0.00 in 98.0 W/m2 OVC
12:54 44.6 °F 43.8 °F 29.71 in Calm   1.0 mph 97 % 0.00 in 109.0 W/m2 OVC
12:59 44.8 °F 44.0 °F 29.70 in North 3.0 mph 4.0 mph 97 % 0.00 in 114.0 W/m2 OVC
13:04 44.7 °F 43.9 °F 29.69 in North 2.0 mph 3.0 mph 97 % 0.00 in 132.0 W/m2 OVC
13:09 44.7 °F 43.9 °F 29.69 in North 2.0 mph 4.0 mph 97 % 0.00 in 109.0 W/m2 OVC
13:14 44.9 °F 44.1 °F 29.68 in Calm   4.0 mph 97 % 0.00 in 102.0 W/m2 OVC
13:19 44.8 °F 44.0 °F 29.68 in Calm   2.0 mph 97 % 0.00 in 109.0 W/m2 OVC
13:24 44.9 °F 44.1 °F 29.68 in NNE 2.0 mph 5.0 mph 97 % 0.00 in 111.0 W/m2 OVC
13:29 45.0 °F 44.2 °F 29.68 in Calm   4.0 mph 97 % 0.00 in 135.0 W/m2 OVC
13:34 45.1 °F 44.3 °F 29.67 in Calm   4.0 mph 97 % 0.00 in 120.0 W/m2 OVC
13:39 45.2 °F 44.4 °F 29.67 in Calm     97 % 0.00 in 100.0 W/m2 OVC
13:44 45.3 °F 44.5 °F 29.68 in Calm   1.0 mph 97 % 0.00 in 91.0 W/m2 OVC
13:49 45.3 °F 44.5 °F 29.68 in Calm     97 % 0.00 in 95.0 W/m2 OVC
13:54 45.2 °F 44.4 °F 29.69 in Calm     97 % 0.00 in 78.0 W/m2 OVC
13:59 45.3 °F 44.5 °F 29.69 in Calm     97 % 0.00 in 81.0 W/m2 OVC
14:04 45.3 °F 44.5 °F 29.69 in Calm     97 % 0.00 in 83.0 W/m2 OVC
14:09 45.3 °F 44.5 °F 29.69 in Calm     97 % 0.00 in 81.0 W/m2 OVC
14:14 45.5 °F 44.7 °F 29.69 in Calm     97 % 0.00 in 83.0 W/m2 OVC
14:19 45.6 °F 44.8 °F 29.69 in Calm     97 % 0.00 in 86.0 W/m2 OVC
14:24 45.7 °F 44.9 °F 29.68 in Calm     97 % 0.00 in 86.0 W/m2 OVC
14:29 45.7 °F 44.9 °F 29.68 in Calm     97 % 0.00 in 75.0 W/m2 OVC
14:34 45.8 °F 45.0 °F 29.68 in Calm   1.0 mph 97 % 0.00 in 88.0 W/m2 OVC
14:39 46.2 °F 45.4 °F 29.68 in NNE 2.0 mph 4.0 mph 97 % 0.00 in 95.0 W/m2 OVC
14:44 46.1 °F 45.3 °F 29.68 in NNE 3.0 mph 5.0 mph 97 % 0.00 in 77.0 W/m2 OVC
14:49 46.2 °F 45.4 °F 29.68 in Calm   4.0 mph 97 % 0.00 in 65.0 W/m2 OVC
14:54 46.2 °F 45.4 °F 29.68 in Calm   3.0 mph 97 % 0.00 in 67.0 W/m2 OVC
14:59 46.2 °F 45.4 °F 29.69 in NNE 1.0 mph 4.0 mph 97 % 0.00 in 51.0 W/m2 OVC
15:04 46.2 °F 45.4 °F 29.70 in Calm   1.0 mph 97 % 0.00 in 44.0 W/m2 OVC
15:09 46.3 °F 45.5 °F 29.70 in Calm     97 % 0.00 in 46.0 W/m2 OVC
15:14 46.3 °F 45.5 °F 29.69 in Calm     97 % 0.00 in 37.0 W/m2 OVC
15:19 46.4 °F 45.6 °F 29.69 in Calm     97 % 0.00 in 35.0 W/m2 OVC
15:24 46.4 °F 45.6 °F 29.69 in Calm     97 % 0.00 in 40.0 W/m2 OVC
15:29 46.4 °F 45.6 °F 29.69 in Calm     97 % 0.00 in 39.0 W/m2 OVC
15:34 46.4 °F 45.6 °F 29.69 in Calm     97 % 0.00 in 37.0 W/m2 OVC
15:39 46.5 °F 45.7 °F 29.69 in Calm     97 % 0.00 in 30.0 W/m2 OVC
15:44 46.6 °F 45.8 °F 29.69 in Calm     97 % 0.00 in 32.0 W/m2 OVC
15:49 46.6 °F 45.8 °F 29.69 in Calm     97 % 0.00 in 37.0 W/m2 OVC
15:54 46.6 °F 45.8 °F 29.70 in Calm   2.0 mph 97 % 0.00 in 32.0 W/m2 OVC
15:59 46.7 °F 45.9 °F 29.70 in Calm     97 % 0.00 in 30.0 W/m2 OVC
16:04 46.7 °F 45.9 °F 29.71 in Calm     97 % 0.00 in 25.0 W/m2 OVC
16:09 46.7 °F 45.9 °F 29.71 in Calm     97 % 0.00 in 23.0 W/m2 OVC
16:14 46.8 °F 46.0 °F 29.71 in Calm   2.0 mph 97 % 0.00 in 25.0 W/m2 OVC
16:19 46.9 °F 46.1 °F 29.71 in Calm     97 % 0.00 in 21.0 W/m2 OVC
16:24 46.9 °F 46.1 °F 29.71 in NNE 1.0 mph 3.0 mph 97 % 0.00 in 16.0 W/m2 OVC
16:29 46.9 °F 46.1 °F 29.72 in Calm   2.0 mph 97 % 0.00 in 12.0 W/m2 OVC
16:34 46.9 °F 46.1 °F 29.72 in Calm     97 % 0.00 in 11.0 W/m2 OVC
16:39 46.9 °F 46.1 °F 29.72 in Calm     97 % 0.00 in 7.0 W/m2 OVC
16:44 46.9 °F 46.1 °F 29.72 in Calm     97 % 0.00 in 5.0 W/m2 OVC
16:49 47.0 °F 46.2 °F 29.72 in Calm     97 % 0.00 in 0.0 W/m2 OVC
16:54 47.0 °F 46.2 °F 29.72 in Calm     97 % 0.00 in 0.0 W/m2 OVC
16:59 46.9 °F 46.1 °F 29.72 in Calm     97 % 0.00 in 0.0 W/m2 OVC
17:04 47.0 °F 46.2 °F 29.71 in Calm     97 % 0.00 in 0.0 W/m2 OVC
17:09 47.0 °F 46.2 °F 29.71 in Calm   2.0 mph 97 % 0.00 in 0.0 W/m2 OVC
17:14 47.0 °F 46.2 °F 29.71 in Calm     97 % 0.00 in 0.0 W/m2 OVC
17:19 47.0 °F 46.2 °F 29.71 in Calm   1.0 mph 97 % 0.00 in 0.0 W/m2 OVC
17:24 47.1 °F 46.3 °F 29.70 in NNE 1.0 mph 3.0 mph 97 % 0.00 in 0.0 W/m2 OVC
17:29 47.1 °F 46.3 °F 29.70 in Calm   3.0 mph 97 % 0.00 in 0.0 W/m2 OVC
17:34 47.2 °F 46.4 °F 29.71 in NE 2.0 mph 4.0 mph 97 % 0.00 in 0.0 W/m2 OVC
17:39 47.2 °F 46.4 °F 29.71 in Calm   4.0 mph 97 % 0.00 in 0.0 W/m2 OVC
17:44 47.3 °F 46.5 °F 29.71 in Calm   2.0 mph 97 % 0.00 in 0.0 W/m2 OVC
17:49 47.3 °F 46.5 °F 29.71 in Calm   2.0 mph 97 % 0.00 in 0.0 W/m2 OVC
17:54 47.3 °F 46.5 °F 29.71 in Calm   3.0 mph 97 % 0.00 in 0.0 W/m2 OVC
17:59 47.3 °F 46.5 °F 29.71 in Calm   1.0 mph 97 % 0.00 in 0.0 W/m2 OVC
18:04 47.4 °F 46.6 °F 29.71 in Calm   1.0 mph 97 % 0.00 in 0.0 W/m2 OVC
18:09 47.4 °F 46.6 °F 29.72 in Calm     97 % 0.00 in 0.0 W/m2 OVC
18:14 47.4 °F 46.6 °F 29.71 in Calm   1.0 mph 97 % 0.00 in 0.0 W/m2 OVC
18:19 47.4 °F 46.6 °F 29.71 in ENE 1.0 mph 3.0 mph 97 % 0.00 in 0.0 W/m2 OVC
18:24 47.4 °F 46.6 °F 29.71 in NE 1.0 mph 3.0 mph 97 % 0.00 in 0.0 W/m2 OVC
18:29 47.5 °F 46.7 °F 29.71 in Calm   3.0 mph 97 % 0.00 in 0.0 W/m2 OVC
18:34 47.5 °F 46.7 °F 29.72 in Calm   2.0 mph 97 % 0.00 in 0.0 W/m2 OVC
18:39 47.6 °F 46.8 °F 29.72 in Calm   1.0 mph 97 % 0.00 in 0.0 W/m2 OVC
18:44 47.6 °F 46.8 °F 29.73 in Calm     97 % 0.00 in 0.0 W/m2 OVC
18:49 47.6 °F 46.8 °F 29.72 in Calm     97 % 0.00 in 0.0 W/m2 OVC
18:54 47.6 °F 46.8 °F 29.72 in Calm   1.0 mph 97 % 0.00 in 0.0 W/m2 OVC
18:59 47.7 °F 46.9 °F 29.72 in NE 1.0 mph 4.0 mph 97 % 0.00 in 0.0 W/m2 OVC
19:04 47.7 °F 46.9 °F 29.72 in Calm   3.0 mph 97 % 0.00 in 0.0 W/m2 OVC
19:09 47.7 °F 46.9 °F 29.72 in NE 1.0 mph 5.0 mph 97 % 0.00 in 0.0 W/m2 OVC
19:14 47.7 °F 46.9 °F 29.72 in ENE 2.0 mph 5.0 mph 97 % 0.00 in 0.0 W/m2 OVC
19:19 47.6 °F 46.8 °F 29.72 in Calm   3.0 mph 97 % 0.00 in 0.0 W/m2 OVC
19:24 47.6 °F 46.8 °F 29.73 in ENE 2.0 mph 3.0 mph 97 % 0.00 in 0.0 W/m2 OVC
19:29 47.6 °F 46.8 °F 29.73 in Calm   4.0 mph 97 % 0.00 in 0.0 W/m2 OVC
19:34 47.5 °F 46.7 °F 29.73 in ENE 1.0 mph 6.0 mph 97 % 0.00 in 0.0 W/m2 OVC
19:39 47.5 °F 46.7 °F 29.72 in Calm   3.0 mph 97 % 0.00 in 0.0 W/m2 OVC
19:44 47.5 °F 46.7 °F 29.72 in NE 2.0 mph 4.0 mph 97 % 0.00 in 0.0 W/m2 OVC
19:49 47.6 °F 46.8 °F 29.72 in NE 2.0 mph 7.0 mph 97 % 0.00 in 0.0 W/m2 OVC
19:54 47.6 °F 46.8 °F 29.72 in NE 2.0 mph 9.0 mph 97 % 0.00 in 0.0 W/m2 OVC
19:59 47.6 °F 46.8 °F 29.72 in NE 1.0 mph 10.0 mph 97 % 0.00 in 0.0 W/m2 OVC
20:04 47.5 °F 46.7 °F 29.72 in ENE 1.0 mph 6.0 mph 97 % 0.00 in 0.0 W/m2 OVC
20:09 47.5 °F 46.7 °F 29.72 in ENE 2.0 mph 9.0 mph 97 % 0.00 in 0.0 W/m2 OVC
20:14 47.6 °F 46.8 °F 29.72 in ENE 2.0 mph 6.0 mph 97 % 0.00 in 0.0 W/m2 OVC
20:19 47.6 °F 46.8 °F 29.72 in Calm   2.0 mph 97 % 0.00 in 0.0 W/m2 OVC
20:24 47.6 °F 46.8 °F 29.73 in ENE 3.0 mph 8.0 mph 97 % 0.00 in 0.0 W/m2 OVC
20:29 47.6 °F 46.8 °F 29.73 in East 3.0 mph 6.0 mph 97 % 0.00 in 0.0 W/m2 OVC
20:34 47.5 °F 46.7 °F 29.73 in East 1.0 mph 6.0 mph 97 % 0.00 in 0.0 W/m2 OVC
20:39 47.4 °F 46.3 °F 29.74 in Calm   7.0 mph 96 % 0.00 in 0.0 W/m2 OVC
20:44 47.4 °F 46.3 °F 29.74 in East 1.0 mph 8.0 mph 96 % 0.00 in 0.0 W/m2 OVC
20:49 47.3 °F 46.5 °F 29.74 in East 3.0 mph 4.0 mph 97 % 0.00 in 0.0 W/m2 OVC
20:54 47.2 °F 46.1 °F 29.74 in East 1.0 mph 4.0 mph 96 % 0.00 in 0.0 W/m2 OVC
20:59 47.1 °F 46.3 °F 29.74 in East 3.0 mph 6.0 mph 97 % 0.00 in 0.0 W/m2 OVC
21:04 47.1 °F 46.3 °F 29.74 in East 2.0 mph 4.0 mph 97 % 0.00 in 0.0 W/m2 OVC
21:09 47.0 °F 46.2 °F 29.74 in East 2.0 mph 8.0 mph 97 % 0.00 in 0.0 W/m2 OVC
21:14 47.0 °F 46.2 °F 29.74 in East 3.0 mph 7.0 mph 97 % 0.00 in 0.0 W/m2 OVC
21:19 46.9 °F 46.1 °F 29.74 in East 3.0 mph 7.0 mph 97 % 0.00 in 0.0 W/m2 OVC
21:24 46.8 °F 45.7 °F 29.74 in ENE 6.0 mph 11.0 mph 96 % 0.00 in 0.0 W/m2 OVC
21:29 46.8 °F 45.7 °F 29.74 in ENE 2.0 mph 11.0 mph 96 % 0.00 in 0.0 W/m2 OVC
21:34 46.7 °F 45.6 °F 29.74 in ENE 3.0 mph 8.0 mph 96 % 0.00 in 0.0 W/m2 OVC
21:39 46.7 °F 45.6 °F 29.74 in ENE 3.0 mph 8.0 mph 96 % 0.00 in 0.0 W/m2 OVC
21:44 46.7 °F 45.6 °F 29.75 in East 3.0 mph 16.0 mph 96 % 0.00 in 0.0 W/m2 OVC
21:49 46.6 °F 45.5 °F 29.75 in East 3.0 mph 16.0 mph 96 % 0.00 in 0.0 W/m2 OVC
21:54 46.6 °F 45.5 °F 29.75 in East 5.0 mph 10.0 mph 96 % 0.00 in 0.0 W/m2 OVC
21:59 46.6 °F 45.5 °F 29.75 in East 6.0 mph 10.0 mph 96 % 0.00 in 0.0 W/m2 OVC
22:04 46.6 °F 45.5 °F 29.75 in East 3.0 mph 9.0 mph 96 % 0.00 in 0.0 W/m2 OVC
22:09 46.6 °F 45.5 °F 29.75 in East 3.0 mph 10.0 mph 96 % 0.00 in 0.0 W/m2 OVC
22:14 46.6 °F 45.5 °F 29.75 in East 6.0 mph 8.0 mph 96 % 0.00 in 0.0 W/m2 OVC
22:19 46.6 °F 45.5 °F 29.75 in ENE 3.0 mph 8.0 mph 96 % 0.00 in 0.0 W/m2 OVC
22:24 46.6 °F 45.5 °F 29.75 in East 5.0 mph 13.0 mph 96 % 0.00 in 0.0 W/m2 OVC
22:29 46.6 °F 45.5 °F 29.75 in East 3.0 mph 12.0 mph 96 % 0.00 in 0.0 W/m2 OVC
22:34 46.6 °F 45.5 °F 29.76 in ENE 7.0 mph 13.0 mph 96 % 0.00 in 0.0 W/m2 OVC
22:39 46.6 °F 45.2 °F 29.76 in East 3.0 mph 13.0 mph 95 % 0.00 in 0.0 W/m2 OVC
22:44 46.7 °F 45.3 °F 29.76 in East 3.0 mph 9.0 mph 95 % 0.00 in 0.0 W/m2 OVC
22:49 46.7 °F 45.3 °F 29.75 in ENE 6.0 mph 11.0 mph 95 % 0.00 in 0.0 W/m2 OVC
22:54 46.7 °F 45.3 °F 29.76 in ENE 6.0 mph 11.0 mph 95 % 0.00 in 0.0 W/m2 OVC
22:59 46.7 °F 45.3 °F 29.76 in ENE 3.0 mph 11.0 mph 95 % 0.00 in 0.0 W/m2 OVC
23:04 46.6 °F 45.0 °F 29.76 in ENE 3.0 mph 13.0 mph 94 % 0.00 in 0.0 W/m2 OVC
23:09 46.5 °F 44.9 °F 29.76 in ENE 3.0 mph 9.0 mph 94 % 0.00 in 0.0 W/m2 OVC
23:14 46.4 °F 44.8 °F 29.76 in ENE 3.0 mph 16.0 mph 94 % 0.00 in 0.0 W/m2 OVC
23:19 46.3 °F 44.7 °F 29.76 in ENE 3.0 mph 8.0 mph 94 % 0.00 in 0.0 W/m2 OVC
23:24 46.2 °F 44.6 °F 29.76 in ENE 5.0 mph 10.0 mph 94 % 0.00 in 0.0 W/m2 OVC
23:29 46.0 °F 44.1 °F 29.76 in ENE 7.0 mph 14.0 mph 93 % 0.00 in 0.0 W/m2 OVC
23:34 46.0 °F 44.1 °F 29.77 in ENE 6.0 mph 13.0 mph 93 % 0.00 in 0.0 W/m2 OVC
23:39 45.9 °F 44.0 °F 29.76 in ENE 7.0 mph 12.0 mph 93 % 0.00 in 0.0 W/m2 OVC
23:44 45.9 °F 44.0 °F 29.76 in ENE 3.0 mph 10.0 mph 93 % 0.00 in 0.0 W/m2 OVC
23:49 45.9 °F 43.7 °F 29.76 in ENE 3.0 mph 14.0 mph 92 % 0.00 in 0.0 W/m2 OVC
23:54 45.8 °F 43.6 °F 29.76 in ENE 6.0 mph 12.0 mph 92 % 0.00 in 0.0 W/m2 OVC
23:59 45.7 °F 43.5 °F 29.75 in ENE 6.0 mph 11.0 mph 92 % 0.00 in 0.0 W/m2 OVC
Air Products Campus Weather
Compliments of Weather Underground - 3.5 mb